Time;durP1;ratioP1;P1;durP2;ratioP2;P2;SDS_P1;SDS_P2;PMS_P1;PMS_P2;Temp;Humidity;BMP_temperature;BMP_pressure;BME280_temperature;BME280_humidity;BME280_pressure;Samples;Min_cycle;Max_cycle;Signal;HPM_P1;HPM_P2
2022/11/26 00:00:17;;;;;;;1999.90;999.90;;;;;;;;;;5058708;28;20232;-75
2022/11/26 00:02:45;;;;;;;1999.90;999.90;;;;;;;;;;5047496;28;20239;-75
2022/11/26 00:05:13;;;;;;;1999.90;999.90;;;;;;;;;;5060845;28;20238;-76
2022/11/26 00:07:42;;;;;;;1999.90;999.90;;;;;;;;;;5057181;28;20227;-76
2022/11/26 00:10:16;;;;;;;1999.90;999.90;;;;;;;;;;5050703;28;20224;-74
2022/11/26 00:12:44;;;;;;;1999.90;999.90;;;;;;;;;;5067056;28;20243;-76
2022/11/26 00:15:17;;;;;;;1999.90;999.90;;;;;;;;;;5046857;28;20238;-75
2022/11/26 00:17:44;;;;;;;1999.90;999.90;;;;;;;;;;5059716;28;20227;-74
2022/11/26 00:20:13;;;;;;;1999.90;999.90;;;;;;;;;;5065842;28;20316;-75
2022/11/26 00:22:41;;;;;;;1999.90;999.90;;;;;;;;;;5066416;28;20259;-74
2022/11/26 00:25:20;;;;;;;1999.90;999.90;;;;;;;;;;5064859;28;20291;-75
2022/11/26 00:27:48;;;;;;;1999.90;999.90;;;;;;;;;;5058530;28;20274;-74
2022/11/26 00:30:17;;;;;;;1999.90;999.90;;;;;;;;;;5060949;28;20231;-73
2022/11/26 00:32:45;;;;;;;1999.90;999.90;;;;;;;;;;5060953;28;20780;-75
2022/11/26 00:35:13;;;;;;;1999.90;999.90;;;;;;;;;;5063997;28;20675;-75
2022/11/26 00:37:41;;;;;;;1999.90;999.90;;;;;;;;;;5053740;28;20232;-75
2022/11/26 00:40:24;;;;;;;1999.90;999.90;;;;;;;;;;5064837;28;20224;-74
2022/11/26 00:42:52;;;;;;;1999.90;999.90;;;;;;;;;;5095132;27;20238;-75
2022/11/26 00:45:29;;;;;;;1999.90;999.90;;;;;;;;;;5064388;28;20227;-75
2022/11/26 00:47:57;;;;;;;1999.90;999.90;;;;;;;;;;5064282;28;20337;-74
2022/11/26 00:50:26;;;;;;;1999.90;999.90;;;;;;;;;;5065778;28;20235;-74
2022/11/26 00:52:54;;;;;;;1999.90;999.90;;;;;;;;;;5062540;28;20300;-76
2022/11/26 00:55:27;;;;;;;1999.90;999.90;;;;;;;;;;5051366;28;20259;-75
2022/11/26 00:57:55;;;;;;;1999.90;999.90;;;;;;;;;;5093227;27;21130;-74
2022/11/26 01:00:25;;;;;;;1999.90;999.90;;;;;;;;;;5061086;28;20224;-75
2022/11/26 01:02:53;;;;;;;1999.90;999.90;;;;;;;;;;5088451;27;20303;-74
2022/11/26 01:05:21;;;;;;;1999.90;999.90;;;;;;;;;;5056195;28;20235;-74
2022/11/26 01:07:50;;;;;;;1999.90;999.90;;;;;;;;;;5054559;28;20236;-75
2022/11/26 01:10:19;;;;;;;1999.90;999.90;;;;;;;;;;5058673;28;20228;-74
2022/11/26 01:12:48;;;;;;;1999.90;999.90;;;;;;;;;;5052931;28;20278;-75
2022/11/26 01:15:17;;;;;;;1999.90;999.90;;;;;;;;;;5039172;28;20231;-75
2022/11/26 01:17:45;;;;;;;1999.90;999.90;;;;;;;;;;5072619;28;20646;-75
2022/11/26 01:20:20;;;;;;;1999.90;999.90;;;;;;;;;;5066198;28;20235;-75
2022/11/26 01:22:53;;;;;;;1999.90;999.90;;;;;;;;;;5062672;28;21105;-73
2022/11/26 01:25:21;;;;;;;1999.90;999.90;;;;;;;;;;5061374;28;20235;-74
2022/11/26 01:27:51;;;;;;;1999.90;999.90;;;;;;;;;;5064562;28;20228;-75
2022/11/26 01:30:21;;;;;;;1999.90;999.90;;;;;;;;;;5048665;28;20232;-74
2022/11/26 01:32:49;;;;;;;1999.90;999.90;;;;;;;;;;5065036;28;20232;-75
2022/11/26 01:35:17;;;;;;;1999.90;999.90;;;;;;;;;;5063055;28;20706;-75
2022/11/26 01:37:46;;;;;;;1999.90;999.90;;;;;;;;;;5065292;28;20240;-78
2022/11/26 01:40:31;;;;;;;1999.90;999.90;;;;;;;;;;5063468;28;20228;-74
2022/11/26 01:43:04;;;;;;;1999.90;999.90;;;;;;;;;;5078712;27;20239;-75
2022/11/26 01:45:31;;;;;;;1999.90;999.90;;;;;;;;;;5047958;28;20287;-73
2022/11/26 01:47:59;;;;;;;1999.90;999.90;;;;;;;;;;5057057;28;20260;-74
2022/11/26 01:50:46;;;;;;;1999.90;999.90;;;;;;;;;;5062422;28;20232;-75
2022/11/26 01:53:16;;;;;;;1999.90;999.90;;;;;;;;;;5065274;28;20239;-74
2022/11/26 01:55:46;;;;;;;1999.90;999.90;;;;;;;;;;5059315;28;20228;-74
2022/11/26 01:58:18;;;;;;;1999.90;999.90;;;;;;;;;;5057069;28;20250;-74
2022/11/26 02:00:46;;;;;;;1999.90;999.90;;;;;;;;;;5041592;28;20224;-74
2022/11/26 02:03:14;;;;;;;1999.90;999.90;;;;;;;;;;5049785;28;20230;-74
2022/11/26 02:05:47;;;;;;;1999.90;999.90;;;;;;;;;;5062361;28;20235;-73
2022/11/26 02:08:15;;;;;;;1999.90;999.90;;;;;;;;;;5091411;27;20232;-75
2022/11/26 02:10:43;;;;;;;1999.90;999.90;;;;;;;;;;5060091;28;20232;-74
2022/11/26 02:13:11;;;;;;;1999.90;999.90;;;;;;;;;;5055528;28;20232;-73
2022/11/26 02:15:43;;;;;;;1999.90;999.90;;;;;;;;;;5059050;28;21095;-74
2022/11/26 02:18:10;;;;;;;1999.90;999.90;;;;;;;;;;5056785;28;20236;-74
2022/11/26 02:20:43;;;;;;;1999.90;999.90;;;;;;;;;;5053959;28;20790;-74
2022/11/26 02:23:22;;;;;;;1999.90;999.90;;;;;;;;;;5050158;28;20286;-73
2022/11/26 02:25:59;;;;;;;1999.90;999.90;;;;;;;;;;5056907;28;20230;-74
2022/11/26 02:28:39;;;;;;;1999.90;999.90;;;;;;;;;;5064273;28;20231;-75
2022/11/26 02:31:10;;;;;;;1999.90;999.90;;;;;;;;;;5059986;28;20270;-74
2022/11/26 02:33:41;;;;;;;1999.90;999.90;;;;;;;;;;5046321;28;20609;-74
2022/11/26 02:36:12;;;;;;;1999.90;999.90;;;;;;;;;;5055290;28;20232;-73
2022/11/26 02:38:41;;;;;;;1999.90;999.90;;;;;;;;;;5057125;28;21269;-75
2022/11/26 02:41:09;;;;;;;1999.90;999.90;;;;;;;;;;5048160;28;20235;-75
2022/11/26 02:43:37;;;;;;;1999.90;999.90;;;;;;;;;;5034793;28;20298;-77
2022/11/26 02:46:07;;;;;;;1999.90;999.90;;;;;;;;;;5057575;28;20233;-74
2022/11/26 02:48:38;;;;;;;1999.90;999.90;;;;;;;;;;5060589;28;20238;-73
2022/11/26 02:51:10;;;;;;;1999.90;999.90;;;;;;;;;;5058712;28;20240;-74
2022/11/26 02:53:38;;;;;;;1999.90;999.90;;;;;;;;;;5059707;28;20247;-73
2022/11/26 02:56:08;;;;;;;1999.90;999.90;;;;;;;;;;5089069;27;20262;-74
2022/11/26 02:58:36;;;;;;;1999.90;999.90;;;;;;;;;;5051699;28;20228;-74
2022/11/26 03:01:06;;;;;;;1999.90;999.90;;;;;;;;;;5041489;28;21076;-74
2022/11/26 03:03:39;;;;;;;1999.90;999.90;;;;;;;;;;5056009;28;21195;-74
2022/11/26 03:06:09;;;;;;;1999.90;999.90;;;;;;;;;;5057001;28;20226;-74
2022/11/26 03:08:37;;;;;;;1999.90;999.90;;;;;;;;;;5056728;28;20236;-75
2022/11/26 03:11:05;;;;;;;1999.90;999.90;;;;;;;;;;5093917;27;20235;-75
2022/11/26 03:13:33;;;;;;;1999.90;999.90;;;;;;;;;;5056859;28;20236;-75
2022/11/26 03:16:01;;;;;;;1999.90;999.90;;;;;;;;;;5030475;28;20247;-75
2022/11/26 03:18:28;;;;;;;1999.90;999.90;;;;;;;;;;5057261;28;20298;-76
2022/11/26 03:20:58;;;;;;;1999.90;999.90;;;;;;;;;;5060415;28;20235;-74
2022/11/26 03:23:25;;;;;;;1999.90;999.90;;;;;;;;;;5058331;28;20231;-74
2022/11/26 03:25:53;;;;;;;1999.90;999.90;;;;;;;;;;5055149;28;20255;-75
2022/11/26 03:28:21;;;;;;;1999.90;999.90;;;;;;;;;;5060332;28;20232;-74
2022/11/26 03:30:49;;;;;;;1999.90;999.90;;;;;;;;;;5049731;28;20235;-75
2022/11/26 03:33:17;;;;;;;1999.90;999.90;;;;;;;;;;5059566;28;20293;-75
2022/11/26 03:35:45;;;;;;;1999.90;999.90;;;;;;;;;;5059542;28;20874;-76
2022/11/26 03:38:14;;;;;;;1999.90;999.90;;;;;;;;;;5058898;28;20220;-76
2022/11/26 03:40:42;;;;;;;1999.90;999.90;;;;;;;;;;5056469;28;20262;-77
2022/11/26 03:43:10;;;;;;;1999.90;999.90;;;;;;;;;;5061221;28;20998;-76
2022/11/26 03:45:38;;;;;;;1999.90;999.90;;;;;;;;;;5060470;28;20289;-76
2022/11/26 03:48:06;;;;;;;1999.90;999.90;;;;;;;;;;5065507;28;20238;-75
2022/11/26 03:50:34;;;;;;;1999.90;999.90;;;;;;;;;;5048712;28;20698;-74
2022/11/26 03:53:02;;;;;;;1999.90;999.90;;;;;;;;;;5060072;28;20230;-76
2022/11/26 03:55:31;;;;;;;1999.90;999.90;;;;;;;;;;5056517;28;20278;-74
2022/11/26 03:57:59;;;;;;;1999.90;999.90;;;;;;;;;;5059561;28;21031;-75
2022/11/26 04:00:27;;;;;;;1999.90;999.90;;;;;;;;;;5061925;28;20236;-76
2022/11/26 04:02:56;;;;;;;1999.90;999.90;;;;;;;;;;5059712;28;20298;-75
2022/11/26 04:05:23;;;;;;;1999.90;999.90;;;;;;;;;;5060852;28;20235;-75
2022/11/26 04:07:51;;;;;;;1999.90;999.90;;;;;;;;;;5055659;28;20223;-75
2022/11/26 04:10:19;;;;;;;1999.90;999.90;;;;;;;;;;5051016;28;20298;-75
2022/11/26 04:12:48;;;;;;;1999.90;999.90;;;;;;;;;;5063838;28;20223;-76
2022/11/26 04:15:16;;;;;;;1999.90;999.90;;;;;;;;;;5058928;28;20238;-76
2022/11/26 04:17:44;;;;;;;1999.90;999.90;;;;;;;;;;5056958;28;20227;-76
2022/11/26 04:20:12;;;;;;;1999.90;999.90;;;;;;;;;;5055162;28;20236;-76
2022/11/26 04:22:40;;;;;;;1999.90;999.90;;;;;;;;;;5062635;28;20239;-77
2022/11/26 04:25:08;;;;;;;1999.90;999.90;;;;;;;;;;5062129;28;20236;-76
2022/11/26 04:27:36;;;;;;;1999.90;999.90;;;;;;;;;;5058014;28;20228;-75
2022/11/26 04:30:06;;;;;;;1999.90;999.90;;;;;;;;;;5050066;28;20232;-76
2022/11/26 04:32:35;;;;;;;1999.90;999.90;;;;;;;;;;5060110;28;20225;-75
2022/11/26 04:35:03;;;;;;;1999.90;999.90;;;;;;;;;;5062485;28;20242;-75
2022/11/26 04:37:31;;;;;;;1999.90;999.90;;;;;;;;;;5057329;28;20238;-76
2022/11/26 04:39:59;;;;;;;1999.90;999.90;;;;;;;;;;5095127;27;20228;-76
2022/11/26 04:42:26;;;;;;;1999.90;999.90;;;;;;;;;;5062095;28;20232;-76
2022/11/26 04:44:54;;;;;;;1999.90;999.90;;;;;;;;;;5054800;28;20728;-76
2022/11/26 04:47:23;;;;;;;1999.90;999.90;;;;;;;;;;5050158;28;20232;-74
2022/11/26 04:49:51;;;;;;;1999.90;999.90;;;;;;;;;;5056625;28;20224;-75
2022/11/26 04:52:19;;;;;;;1999.90;999.90;;;;;;;;;;5061948;28;20230;-75
2022/11/26 04:54:47;;;;;;;1999.90;999.90;;;;;;;;;;5044928;28;20233;-75
2022/11/26 04:57:15;;;;;;;1999.90;999.90;;;;;;;;;;5054361;28;20243;-75
2022/11/26 04:59:43;;;;;;;1999.90;999.90;;;;;;;;;;5060704;28;20232;-75
2022/11/26 05:02:10;;;;;;;1999.90;999.90;;;;;;;;;;5053949;28;20227;-75
2022/11/26 05:04:39;;;;;;;1999.90;999.90;;;;;;;;;;5048851;28;20229;-75
2022/11/26 05:07:07;;;;;;;1999.90;999.90;;;;;;;;;;5054204;28;20224;-74
2022/11/26 05:09:35;;;;;;;1999.90;999.90;;;;;;;;;;5048710;28;20998;-75
2022/11/26 05:12:03;;;;;;;1999.90;999.90;;;;;;;;;;5066985;28;20750;-76
2022/11/26 05:14:31;;;;;;;1999.90;999.90;;;;;;;;;;5063512;28;20262;-76
2022/11/26 05:16:59;;;;;;;1999.90;999.90;;;;;;;;;;5067735;28;20660;-75
2022/11/26 05:19:27;;;;;;;1999.90;999.90;;;;;;;;;;5051557;28;20228;-75
2022/11/26 05:21:56;;;;;;;1999.90;999.90;;;;;;;;;;5050437;28;20610;-75
2022/11/26 05:24:24;;;;;;;1999.90;999.90;;;;;;;;;;5059616;28;20239;-74
2022/11/26 05:26:51;;;;;;;1999.90;999.90;;;;;;;;;;5055605;28;20232;-76
2022/11/26 05:29:24;;;;;;;1999.90;999.90;;;;;;;;;;5057950;28;20239;-75
2022/11/26 05:31:52;;;;;;;1999.90;999.90;;;;;;;;;;5058755;28;20224;-75
2022/11/26 05:34:20;;;;;;;1999.90;999.90;;;;;;;;;;5054112;28;20240;-76
2022/11/26 05:36:48;;;;;;;1999.90;999.90;;;;;;;;;;5058904;28;20235;-75
2022/11/26 05:39:17;;;;;;;1999.90;999.90;;;;;;;;;;5056100;28;20239;-75
2022/11/26 05:41:45;;;;;;;1999.90;999.90;;;;;;;;;;5054859;28;20238;-75
2022/11/26 05:44:13;;;;;;;1999.90;999.90;;;;;;;;;;5094125;27;20228;-75
2022/11/26 05:46:42;;;;;;;1999.90;999.90;;;;;;;;;;5089295;27;20742;-74
2022/11/26 05:49:10;;;;;;;1999.90;999.90;;;;;;;;;;5057270;28;20974;-75
2022/11/26 05:51:37;;;;;;;1999.90;999.90;;;;;;;;;;5064972;28;20227;-75
2022/11/26 05:54:06;;;;;;;1999.90;999.90;;;;;;;;;;5062062;28;21088;-75
2022/11/26 05:56:35;;;;;;;1999.90;999.90;;;;;;;;;;5061582;28;21101;-76
2022/11/26 05:59:03;;;;;;;1999.90;999.90;;;;;;;;;;5082366;27;20258;-74
2022/11/26 06:01:30;;;;;;;1999.90;999.90;;;;;;;;;;5056000;28;20224;-75
2022/11/26 06:03:58;;;;;;;1999.90;999.90;;;;;;;;;;5051205;28;20224;-74
2022/11/26 06:06:26;;;;;;;1999.90;999.90;;;;;;;;;;5057564;28;20239;-76
2022/11/26 06:08:54;;;;;;;1999.90;999.90;;;;;;;;;;5055757;28;20237;-75
2022/11/26 06:11:22;;;;;;;1999.90;999.90;;;;;;;;;;5038941;28;20232;-75
2022/11/26 06:13:51;;;;;;;1999.90;999.90;;;;;;;;;;5088840;27;20243;-77
2022/11/26 06:16:19;;;;;;;1999.90;999.90;;;;;;;;;;5049005;28;20228;-74
2022/11/26 06:18:47;;;;;;;1999.90;999.90;;;;;;;;;;5056994;28;21064;-74
2022/11/26 06:21:15;;;;;;;1999.90;999.90;;;;;;;;;;5058329;28;20227;-74
2022/11/26 06:23:42;;;;;;;1999.90;999.90;;;;;;;;;;5060193;28;20232;-76
2022/11/26 06:26:22;;;;;;;1999.90;999.90;;;;;;;;;;5058890;28;20232;-76
2022/11/26 06:28:51;;;;;;;1999.90;999.90;;;;;;;;;;5055995;28;20239;-73
2022/11/26 06:31:19;;;;;;;1999.90;999.90;;;;;;;;;;5052395;28;20228;-73
2022/11/26 06:33:47;;;;;;;1999.90;999.90;;;;;;;;;;5052671;28;20239;-74
2022/11/26 06:36:15;;;;;;;1999.90;999.90;;;;;;;;;;5062106;28;20704;-75
2022/11/26 06:38:43;;;;;;;1999.90;999.90;;;;;;;;;;5062944;28;20232;-76
2022/11/26 06:41:11;;;;;;;1999.90;999.90;;;;;;;;;;5056764;28;20268;-75
2022/11/26 06:43:39;;;;;;;1999.90;999.90;;;;;;;;;;5056908;28;20233;-73
2022/11/26 06:46:09;;;;;;;1999.90;999.90;;;;;;;;;;5060835;28;20232;-74
2022/11/26 06:48:37;;;;;;;1999.90;999.90;;;;;;;;;;5043604;28;20221;-73
2022/11/26 06:51:06;;;;;;;1999.90;999.90;;;;;;;;;;5059528;28;20238;-74
2022/11/26 06:53:34;;;;;;;1999.90;999.90;;;;;;;;;;5057134;28;20584;-75
2022/11/26 06:56:02;;;;;;;1999.90;999.90;;;;;;;;;;5058497;28;20243;-75
2022/11/26 06:58:30;;;;;;;1999.90;999.90;;;;;;;;;;5057204;28;20767;-75
2022/11/26 07:00:58;;;;;;;1999.90;999.90;;;;;;;;;;5061390;28;20259;-75
2022/11/26 07:03:27;;;;;;;1999.90;999.90;;;;;;;;;;5052964;28;20232;-74
2022/11/26 07:06:00;;;;;;;1999.90;999.90;;;;;;;;;;5059934;28;21158;-74
2022/11/26 07:08:27;;;;;;;1999.90;999.90;;;;;;;;;;5064157;28;20224;-74
2022/11/26 07:10:55;;;;;;;1999.90;999.90;;;;;;;;;;5066192;28;20228;-75
2022/11/26 07:13:23;;;;;;;1999.90;999.90;;;;;;;;;;5063180;28;22589;-75
2022/11/26 07:15:51;;;;;;;1999.90;999.90;;;;;;;;;;5062710;28;20236;-74
2022/11/26 07:18:19;;;;;;;1999.90;999.90;;;;;;;;;;5059885;28;20243;-75
2022/11/26 07:20:48;;;;;;;1999.90;999.90;;;;;;;;;;5075216;28;20706;-74
2022/11/26 07:23:16;;;;;;;1999.90;999.90;;;;;;;;;;5085016;27;20236;-75
2022/11/26 07:25:44;;;;;;;1999.90;999.90;;;;;;;;;;5056279;28;20229;-75
2022/11/26 07:28:11;;;;;;;1999.90;999.90;;;;;;;;;;5061203;28;21287;-75
2022/11/26 07:30:39;;;;;;;1999.90;999.90;;;;;;;;;;5064972;28;20232;-75
2022/11/26 07:33:07;;;;;;;1999.90;999.90;;;;;;;;;;5066072;28;20286;-75
2022/11/26 07:35:37;;;;;;;1999.90;999.90;;;;;;;;;;5060137;28;20360;-75
2022/11/26 07:38:06;;;;;;;1999.90;999.90;;;;;;;;;;5055799;28;20285;-75
2022/11/26 07:40:33;;;;;;;1999.90;999.90;;;;;;;;;;5078352;27;20239;-75
2022/11/26 07:43:01;;;;;;;1999.90;999.90;;;;;;;;;;5058118;28;20220;-75
2022/11/26 07:45:30;;;;;;;1999.90;999.90;;;;;;;;;;5058316;28;21167;-75
2022/11/26 07:47:58;;;;;;;1999.90;999.90;;;;;;;;;;5053510;28;20229;-76
2022/11/26 07:50:25;;;;;;;1999.90;999.90;;;;;;;;;;5054320;28;20921;-74
2022/11/26 07:52:53;;;;;;;1999.90;999.90;;;;;;;;;;5048843;28;20228;-73
2022/11/26 07:55:22;;;;;;;1999.90;999.90;;;;;;;;;;5055084;28;20224;-72
2022/11/26 07:57:50;;;;;;;1999.90;999.90;;;;;;;;;;5075360;27;20252;-74
2022/11/26 08:00:18;;;;;;;1999.90;999.90;;;;;;;;;;5047748;28;20228;-75
2022/11/26 08:02:46;;;;;;;1999.90;999.90;;;;;;;;;;5050868;28;20235;-74
2022/11/26 08:05:14;;;;;;;1999.90;999.90;;;;;;;;;;5057896;28;20228;-74
2022/11/26 08:07:42;;;;;;;1999.90;999.90;;;;;;;;;;5058531;28;20231;-74
2022/11/26 08:10:11;;;;;;;1999.90;999.90;;;;;;;;;;5059369;28;20289;-73
2022/11/26 08:12:40;;;;;;;1999.90;999.90;;;;;;;;;;5059864;28;20319;-74
2022/11/26 08:15:08;;;;;;;1999.90;999.90;;;;;;;;;;5056055;28;21081;-74
2022/11/26 08:17:36;;;;;;;1999.90;999.90;;;;;;;;;;5055161;28;20730;-75
2022/11/26 08:20:05;;;;;;;1999.90;999.90;;;;;;;;;;5052960;28;20263;-73
2022/11/26 08:22:33;;;;;;;1999.90;999.90;;;;;;;;;;5047548;28;20224;-73
2022/11/26 08:25:00;;;;;;;1999.90;999.90;;;;;;;;;;5049067;28;20737;-74
2022/11/26 08:27:31;;;;;;;1999.90;999.90;;;;;;;;;;5052031;28;20355;-74
2022/11/26 08:30:00;;;;;;;1999.90;999.90;;;;;;;;;;5055660;28;20692;-76
2022/11/26 08:32:29;;;;;;;1999.90;999.90;;;;;;;;;;5052152;28;20283;-77
2022/11/26 08:34:56;;;;;;;1999.90;999.90;;;;;;;;;;5041006;28;20232;-75
2022/11/26 08:37:24;;;;;;;1999.90;999.90;;;;;;;;;;5059502;28;20232;-73
2022/11/26 08:39:52;;;;;;;1999.90;999.90;;;;;;;;;;5051505;28;20228;-75
2022/11/26 08:42:20;;;;;;;1999.90;999.90;;;;;;;;;;5059811;28;20315;-74
2022/11/26 08:44:50;;;;;;;1999.90;999.90;;;;;;;;;;5055184;28;20745;-75
2022/11/26 08:47:19;;;;;;;1999.90;999.90;;;;;;;;;;5054620;28;20259;-74
2022/11/26 08:49:48;;;;;;;1999.90;999.90;;;;;;;;;;5052463;28;20806;-74
2022/11/26 08:52:16;;;;;;;1999.90;999.90;;;;;;;;;;5056009;28;20236;-74
2022/11/26 08:54:44;;;;;;;1999.90;999.90;;;;;;;;;;5052003;28;20247;-74
2022/11/26 08:57:12;;;;;;;1999.90;999.90;;;;;;;;;;5057658;28;21122;-73
2022/11/26 08:59:40;;;;;;;1999.90;999.90;;;;;;;;;;5051683;28;20230;-73
2022/11/26 09:02:09;;;;;;;1999.90;999.90;;;;;;;;;;5065347;28;20751;-73
2022/11/26 09:04:44;;;;;;;1999.90;999.90;;;;;;;;;;5062387;28;21764;-74
2022/11/26 09:07:11;;;;;;;1999.90;999.90;;;;;;;;;;5064761;28;20319;-72
2022/11/26 09:09:39;;;;;;;1999.90;999.90;;;;;;;;;;5087065;27;20236;-71
2022/11/26 09:12:08;;;;;;;1999.90;999.90;;;;;;;;;;5053202;28;21057;-71
2022/11/26 09:14:36;;;;;;;1999.90;999.90;;;;;;;;;;5050241;28;20239;-71
2022/11/26 09:17:05;;;;;;;1999.90;999.90;;;;;;;;;;5047960;28;20231;-71
2022/11/26 09:19:33;;;;;;;1999.90;999.90;;;;;;;;;;5059872;28;20231;-72
2022/11/26 09:22:03;;;;;;;1999.90;999.90;;;;;;;;;;5055298;28;21222;-72
2022/11/26 09:24:31;;;;;;;1999.90;999.90;;;;;;;;;;5061660;28;20232;-73
2022/11/26 09:26:58;;;;;;;1999.90;999.90;;;;;;;;;;5055940;28;20235;-73
2022/11/26 09:29:34;;;;;;;1999.90;999.90;;;;;;;;;;5062091;28;20959;-75
2022/11/26 09:32:02;;;;;;;1999.90;999.90;;;;;;;;;;5061519;28;20660;-73
2022/11/26 09:34:50;;;;;;;1999.90;999.90;;;;;;;;;;5043955;28;21161;-73
2022/11/26 09:37:19;;;;;;;1999.90;999.90;;;;;;;;;;5057443;28;20236;-74
2022/11/26 09:39:47;;;;;;;1999.90;999.90;;;;;;;;;;5042625;28;20228;-71
2022/11/26 09:42:20;;;;;;;1999.90;999.90;;;;;;;;;;5059626;28;21147;-71
2022/11/26 09:44:57;;;;;;;1999.90;999.90;;;;;;;;;;5059649;28;20804;-71
2022/11/26 09:47:27;;;;;;;1999.90;999.90;;;;;;;;;;5088501;27;20234;-72
2022/11/26 09:50:02;;;;;;;1999.90;999.90;;;;;;;;;;5060851;28;20838;-71
2022/11/26 09:52:34;;;;;;;1999.90;999.90;;;;;;;;;;5046654;28;20223;-71
2022/11/26 09:55:05;;;;;;;1999.90;999.90;;;;;;;;;;5062598;28;20242;-72
2022/11/26 09:57:35;;;;;;;1999.90;999.90;;;;;;;;;;5086526;27;20236;-73
2022/11/26 10:00:05;;;;;;;1999.90;999.90;;;;;;;;;;5063817;28;20239;-71
2022/11/26 10:02:34;;;;;;;1999.90;999.90;;;;;;;;;;5061472;28;20232;-71
2022/11/26 10:05:02;;;;;;;1999.90;999.90;;;;;;;;;;5064837;28;20274;-72
2022/11/26 10:07:36;;;;;;;1999.90;999.90;;;;;;;;;;5034743;28;20236;-70
2022/11/26 10:10:07;;;;;;;1999.90;999.90;;;;;;;;;;5050762;28;20673;-70
2022/11/26 10:12:41;;;;;;;1999.90;999.90;;;;;;;;;;5055718;28;20233;-73
2022/11/26 10:15:36;;;;;;;1999.90;999.90;;;;;;;;;;5056981;28;20254;-73
2022/11/26 10:18:09;;;;;;;1999.90;999.90;;;;;;;;;;5057985;28;20286;-72
2022/11/26 10:20:54;;;;;;;1999.90;999.90;;;;;;;;;;5052173;28;20979;-75
2022/11/26 10:23:26;;;;;;;1999.90;999.90;;;;;;;;;;5058579;28;20240;-75
2022/11/26 10:25:54;;;;;;;1999.90;999.90;;;;;;;;;;5054892;28;20243;-75
2022/11/26 10:28:26;;;;;;;1999.90;999.90;;;;;;;;;;5056138;28;20220;-75
2022/11/26 10:30:57;;;;;;;1999.90;999.90;;;;;;;;;;5054596;28;20251;-74
2022/11/26 10:33:26;;;;;;;1999.90;999.90;;;;;;;;;;5060768;28;20236;-74
2022/11/26 10:35:54;;;;;;;1999.90;999.90;;;;;;;;;;5061662;28;21005;-73
2022/11/26 10:38:22;;;;;;;1999.90;999.90;;;;;;;;;;5066747;28;20658;-74
2022/11/26 10:40:51;;;;;;;1999.90;999.90;;;;;;;;;;5070224;28;20607;-73
2022/11/26 10:43:22;;;;;;;1999.90;999.90;;;;;;;;;;5067835;28;20316;-74
2022/11/26 10:45:51;;;;;;;1999.90;999.90;;;;;;;;;;5065222;28;20726;-74
2022/11/26 10:48:21;;;;;;;1999.90;999.90;;;;;;;;;;5047521;28;20284;-74
2022/11/26 10:50:57;;;;;;;1999.90;999.90;;;;;;;;;;5073342;28;20278;-74
2022/11/26 10:53:26;;;;;;;1999.90;999.90;;;;;;;;;;5062933;28;20250;-74
2022/11/26 10:55:57;;;;;;;1999.90;999.90;;;;;;;;;;5083804;27;20320;-74
2022/11/26 10:58:26;;;;;;;1999.90;999.90;;;;;;;;;;5056636;28;20237;-74
2022/11/26 11:00:55;;;;;;;1999.90;999.90;;;;;;;;;;5064345;28;20239;-74
2022/11/26 11:03:24;;;;;;;1999.90;999.90;;;;;;;;;;5047264;28;21020;-73
2022/11/26 11:06:22;;;;;;;1999.90;999.90;;;;;;;;;;5055259;28;20350;-73
2022/11/26 11:08:51;;;;;;;1999.90;999.90;;;;;;;;;;5054794;28;20227;-73
2022/11/26 11:11:21;;;;;;;1999.90;999.90;;;;;;;;;;5058695;28;20231;-74
2022/11/26 11:13:49;;;;;;;1999.90;999.90;;;;;;;;;;5061656;28;20240;-73
2022/11/26 11:16:21;;;;;;;1999.90;999.90;;;;;;;;;;5062509;28;20302;-73
2022/11/26 11:18:50;;;;;;;1999.90;999.90;;;;;;;;;;5059463;28;20323;-73
2022/11/26 11:21:19;;;;;;;1999.90;999.90;;;;;;;;;;5063442;28;20224;-75
2022/11/26 11:23:47;;;;;;;1999.90;999.90;;;;;;;;;;5093740;27;20810;-75
2022/11/26 11:26:42;;;;;;;1999.90;999.90;;;;;;;;;;5061898;28;20252;-75
2022/11/26 11:29:23;;;;;;;1999.90;999.90;;;;;;;;;;5063150;28;20223;-76
2022/11/26 11:31:52;;;;;;;1999.90;999.90;;;;;;;;;;5062954;28;20267;-74
2022/11/26 11:34:21;;;;;;;1999.90;999.90;;;;;;;;;;5060731;28;20228;-74
2022/11/26 11:36:58;;;;;;;1999.90;999.90;;;;;;;;;;5051950;28;20233;-74
2022/11/26 11:39:30;;;;;;;1999.90;999.90;;;;;;;;;;5043433;28;20236;-75
2022/11/26 11:42:00;;;;;;;1999.90;999.90;;;;;;;;;;5060784;28;20228;-74
2022/11/26 11:44:34;;;;;;;1999.90;999.90;;;;;;;;;;5077155;28;20227;-75
2022/11/26 11:47:10;;;;;;;1999.90;999.90;;;;;;;;;;5057985;28;20315;-75
2022/11/26 11:49:45;;;;;;;1999.90;999.90;;;;;;;;;;5056936;28;20242;-75
2022/11/26 11:52:17;;;;;;;1999.90;999.90;;;;;;;;;;5056822;28;20641;-76
2022/11/26 11:54:55;;;;;;;1999.90;999.90;;;;;;;;;;5048143;28;20244;-76
2022/11/26 11:57:33;;;;;;;1999.90;999.90;;;;;;;;;;5056339;28;20239;-76
2022/11/26 12:00:12;;;;;;;1999.90;999.90;;;;;;;;;;5075428;28;20231;-73
2022/11/26 12:02:58;;;;;;;1999.90;999.90;;;;;;;;;;5055048;28;20228;-71
2022/11/26 12:05:44;;;;;;;1999.90;999.90;;;;;;;;;;5041010;28;20238;-71
2022/11/26 12:08:17;;;;;;;1999.90;999.90;;;;;;;;;;5054471;28;20231;-73
2022/11/26 12:10:48;;;;;;;1999.90;999.90;;;;;;;;;;5055169;28;20314;-71
2022/11/26 12:13:20;;;;;;;1999.90;999.90;;;;;;;;;;5041696;28;20236;-72
2022/11/26 12:15:51;;;;;;;1999.90;999.90;;;;;;;;;;5054043;28;20231;-72
2022/11/26 12:18:22;;;;;;;1999.90;999.90;;;;;;;;;;5056591;28;20231;-72
2022/11/26 12:20:52;;;;;;;1999.90;999.90;;;;;;;;;;5040639;28;20270;-71
2022/11/26 12:23:25;;;;;;;1999.90;999.90;;;;;;;;;;5044575;28;20279;-71
2022/11/26 12:25:54;;;;;;;1999.90;999.90;;;;;;;;;;5062884;28;20230;-71
2022/11/26 12:28:26;;;;;;;1999.90;999.90;;;;;;;;;;5063972;28;20224;-72
2022/11/26 12:30:56;;;;;;;1999.90;999.90;;;;;;;;;;5062095;28;20310;-72
2022/11/26 12:33:27;;;;;;;1999.90;999.90;;;;;;;;;;5058117;28;21419;-72
2022/11/26 12:35:56;;;;;;;1999.90;999.90;;;;;;;;;;5063043;28;20231;-72
2022/11/26 12:38:27;;;;;;;1999.90;999.90;;;;;;;;;;5057248;28;20235;-72
2022/11/26 12:41:00;;;;;;;1999.90;999.90;;;;;;;;;;5061878;28;20324;-72
2022/11/26 12:43:33;;;;;;;1999.90;999.90;;;;;;;;;;5063916;28;20242;-72
2022/11/26 12:46:03;;;;;;;1999.90;999.90;;;;;;;;;;5061666;28;20232;-71
2022/11/26 12:48:33;;;;;;;1999.90;999.90;;;;;;;;;;5064719;28;20231;-71
2022/11/26 12:51:09;;;;;;;1999.90;999.90;;;;;;;;;;5068195;28;20224;-71
2022/11/26 12:53:41;;;;;;;1999.90;999.90;;;;;;;;;;5068107;28;20319;-71
2022/11/26 12:56:14;;;;;;;1999.90;999.90;;;;;;;;;;5061537;28;20251;-71
2022/11/26 12:58:47;;;;;;;1999.90;999.90;;;;;;;;;;5090055;27;20235;-71
2022/11/26 13:01:15;;;;;;;1999.90;999.90;;;;;;;;;;5066165;28;20223;-71
2022/11/26 13:03:43;;;;;;;1999.90;999.90;;;;;;;;;;5068750;28;20262;-71
2022/11/26 13:06:17;;;;;;;1999.90;999.90;;;;;;;;;;5064124;28;21007;-72
2022/11/26 13:08:48;;;;;;;1999.90;999.90;;;;;;;;;;5067288;28;20277;-71
2022/11/26 13:11:23;;;;;;;1999.90;999.90;;;;;;;;;;5068276;28;20354;-73
2022/11/26 13:13:57;;;;;;;1999.90;999.90;;;;;;;;;;5064233;28;21708;-71
2022/11/26 13:16:33;;;;;;;1999.90;999.90;;;;;;;;;;5065904;28;20282;-71
2022/11/26 13:19:04;;;;;;;1999.90;999.90;;;;;;;;;;5096323;27;20836;-72
2022/11/26 13:21:43;;;;;;;1999.90;999.90;;;;;;;;;;5045975;28;20725;-71
2022/11/26 13:24:18;;;;;;;1999.90;999.90;;;;;;;;;;5066913;28;20231;-72
2022/11/26 13:27:01;;;;;;;1999.90;999.90;;;;;;;;;;5073383;28;20863;-71
2022/11/26 13:29:38;;;;;;;1999.90;999.90;;;;;;;;;;5066733;28;20319;-72
2022/11/26 13:32:14;;;;;;;1999.90;999.90;;;;;;;;;;5069619;28;20263;-71
2022/11/26 13:34:52;;;;;;;1999.90;999.90;;;;;;;;;;5062023;28;22401;-71
2022/11/26 13:37:24;;;;;;;1999.90;999.90;;;;;;;;;;5096866;27;20775;-71
2022/11/26 13:40:21;;;;;;;1999.90;999.90;;;;;;;;;;5059362;28;20749;-71
2022/11/26 13:43:02;;;;;;;1999.90;999.90;;;;;;;;;;5095491;27;20637;-70
2022/11/26 13:45:50;;;;;;;1999.90;999.90;;;;;;;;;;5062584;28;20282;-73
2022/11/26 13:48:20;;;;;;;1999.90;999.90;;;;;;;;;;5098255;27;20324;-71
2022/11/26 13:50:50;;;;;;;1999.90;999.90;;;;;;;;;;5049413;28;20236;-71
2022/11/26 13:53:20;;;;;;;1999.90;999.90;;;;;;;;;;5061900;28;20235;-71
2022/11/26 13:55:55;;;;;;;1999.90;999.90;;;;;;;;;;5063269;28;20223;-72
2022/11/26 13:58:24;;;;;;;1999.90;999.90;;;;;;;;;;5067855;28;20228;-71